Delta Pride — DSNG6 — position and weather

sailwx.info

Track history (hours):
 
Tides and Currents Weather Stations Pressure Air Temp Water Temp Dewpoint Dewpoint Depression Visibility Wind Speed Wind Dir Waves Ship Positions

Delta Pride

Last reported at 2016-Feb-12 17:34 UTC. Time now 2016-Feb-14 16:49 UTC.
Position N 48°35' W 126°14'.

Length 186 m; draft 10.9 m.

Type: Cargo ship. MMSI: 441339000.

Date/timePositionNaut miles runAvg speedWind from/ knotsBaromVisibWave heightAir tempDewpointWater temp
2016-Feb-12 17:34N 48°35' W 126°14'1110.9
2016-Feb-12 16:33N 48°34' W 125°57'1111.0
2016-Feb-12 15:33N 48°33' W 125°41'1010.5
2016-Feb-12 14:34N 48°32' W 125°25'1110.7
2016-Feb-12 13:32N 48°32' W 125°08'4611.5
2016-Feb-12 09:32N 48°19' W 124°02'1313.3
2016-Feb-12 08:33N 48°16' W 123°43'1211.5
2016-Feb-12 07:33N 48°20' W 123°26'9 9.2
2016-Feb-12 06:33N 48°24' W 123°14'1413.7
2016-Feb-12 05:34N 48°38' W 123°15'1211.7
2016-Feb-12 04:33N 48°46' W 123°02'1110.9
2016-Feb-12 03:33N 48°56' W 123°11'1212.1
2016-Feb-12 02:33N 49°04' W 123°24'1212.1
2016-Feb-12 01:33N 49°16' W 123°20'9 8.9
2016-Feb-12 00:33N 49°18' W 123°07'2 2.2
2016-Feb-11 23:33N 49°18' W 123°03'0 0.0
2016-Feb-11 22:33N 49°18' W 123°03'0 0.0
2016-Feb-11 21:33N 49°18' W 123°03'0 0.0
2016-Feb-11 20:33N 49°18' W 123°03'0 0.0
2016-Feb-11 19:33N 49°18' W 123°03'0 0.0
2016-Feb-11 18:34N 49°18' W 123°03'0 0.0
2016-Feb-11 17:33N 49°18' W 123°03'0 0.0
2016-Feb-11 16:33N 49°18' W 123°03'0 0.0
2016-Feb-11 15:33N 49°18' W 123°03'0 0.0
2016-Feb-11 14:33N 49°18' W 123°03'0 0.0
2016-Feb-11 13:33N 49°18' W 123°03'0 0.0
2016-Feb-11 12:33N 49°18' W 123°03'0 0.0
2016-Feb-11 11:33N 49°18' W 123°03'0 0.0
2016-Feb-11 10:33N 49°18' W 123°03'0 0.0
2016-Feb-11 09:33N 49°18' W 123°03'0 0.0
2016-Feb-11 08:33N 49°18' W 123°03'0 0.0
2016-Feb-11 07:33N 49°18' W 123°03'0 0.0
2016-Feb-11 06:33N 49°18' W 123°03'0 0.0
2016-Feb-11 05:33N 49°18' W 123°03'0 0.0
2016-Feb-11 04:33N 49°18' W 123°03'0 0.0
2016-Feb-11 03:34N 49°18' W 123°03'0 0.0
2016-Feb-11 02:33N 49°18' W 123°03'0 0.0
2016-Feb-11 01:33N 49°18' W 123°03'0 0.0
2016-Feb-11 00:33N 49°18' W 123°03'0 0.0
2016-Feb-10 23:33N 49°18' W 123°03'0 0.0
2016-Feb-10 22:33N 49°18' W 123°03'0 0.0
2016-Feb-10 21:33N 49°18' W 123°03'0 0.0
2016-Feb-10 20:33N 49°18' W 123°03'0 0.0
2016-Feb-10 19:33N 49°18' W 123°03'0 0.0
2016-Feb-10 18:33N 49°18' W 123°03'0 0.0
2016-Feb-10 17:33N 49°18' W 123°03'0 0.0
2016-Feb-10 16:33N 49°18' W 123°03'0 0.0
2016-Feb-10 15:33N 49°18' W 123°03'0 0.0
2016-Feb-10 14:33N 49°18' W 123°03'0 0.0
2016-Feb-10 13:33N 49°18' W 123°03'0 0.0
2016-Feb-10 12:33N 49°18' W 123°03'0 0.0
2016-Feb-10 11:33N 49°18' W 123°03'0 0.0
2016-Feb-10 10:33N 49°18' W 123°03'0 0.0
2016-Feb-10 09:33N 49°18' W 123°03'0 0.0
2016-Feb-10 08:33N 49°18' W 123°03'0 0.0
2016-Feb-10 07:33N 49°18' W 123°03'0 0.0
2016-Feb-10 06:33N 49°18' W 123°03'0 0.0
2016-Feb-10 05:33N 49°18' W 123°03'0 0.0
2016-Feb-10 04:33N 49°18' W 123°03'0 0.0
2016-Feb-10 03:33N 49°18' W 123°03'0 0.4
2016-Feb-10 02:33N 49°18' W 123°04'8 8.4
2016-Feb-10 01:33N 49°18' W 123°17'1313.5
2016-Feb-10 00:34N 49°04' W 123°20'1514.8
2016-Feb-09 23:34N 48°54' W 123°05'1111.0
2016-Feb-09 22:34N 48°43' W 123°10'1212.1
2016-Feb-09 21:34N 48°31' W 123°11'1211.6
2016-Feb-09 20:34N 48°22' W 123°22'9 8.8
2016-Feb-09 19:32N 48°14' W 123°29'1212.0
2016-Feb-09 18:33N 48°14' W 123°47'4912.2
2016-Feb-09 14:30N 48°28' W 124°58'1313.4
2016-Feb-09 13:33N 48°18' W 125°09'2013.9
2016-Feb-09 12:07N 48°01' W 125°25'813.8
2016-Feb-09 11:33N 47°55' W 125°32'1913.9
2016-Feb-09 10:10N 47°40' W 125°51'2113.1
2016-Feb-09 08:33N 47°21' W 126°05'1914.8
2016-Feb-09 07:15N 47°02' W 126°05'1014.9
2016-Feb-09 06:33N 46°52' W 126°05'1514.5
2016-Feb-09 05:33N 46°37' W 126°05'1414.1
2016-Feb-09 04:33N 46°23' W 126°05'1414.1
2016-Feb-09 03:33N 46°09' W 126°05'1010.4
2016-Feb-09 02:33N 45°59' W 126°05'3 3.1
2016-Feb-09 01:33N 45°55' W 126°05'1413.6
2016-Feb-09 00:33N 45°42' W 126°05'3013.5
2016-Feb-08 22:18N 45°12' W 126°05'1013.2
2016-Feb-08 21:32N 45°01' W 126°05'1413.4
2016-Feb-08 20:29N 44°47' W 126°05'39112.6
2016-Feb-07 13:33N 38°27' W 124°07'1312.9
2016-Feb-07 12:33N 38°21' W 123°52'1312.7
2016-Feb-07 11:33N 38°15' W 123°37'1312.6
2016-Feb-07 10:33N 38°10' W 123°23'1212.4
2016-Feb-07 09:33N 38°01' W 123°12'1312.9
2016-Feb-07 08:33N 37°54' W 122°58'1312.9
2016-Feb-07 07:33N 37°47' W 122°44'1010.3
2016-Feb-07 06:33N 37°48' W 122°31'9 8.9
2016-Feb-07 05:33N 37°56' W 122°27'3010.0
2016-Feb-07 02:33N 38°02' W 121°49'2 0.1
2016-Feb-06 10:33N 38°02' W 121°52'0 0.0
2016-Feb-05 17:24N 38°02' W 121°52'0 0.0
2016-Feb-05 16:30N 38°02' W 121°52'0 0.0
2016-Feb-04 21:28N 38°02' W 121°52'5 5.4
2016-Feb-04 20:33N 38°03' W 121°58'11 8.8
2016-Feb-04 19:19N 38°03' W 122°12'911.4
2016-Feb-04 18:33N 38°02' W 122°22'1010.2
2016-Feb-04 17:34N 37°52' W 122°25'9 9.3
2016-Feb-04 16:33N 37°47' W 122°35'8 8.4
2016-Feb-04 15:34N 37°42' W 122°44'9 8.7
2016-Feb-04 14:33N 37°37' W 122°53'10 9.8
2016-Feb-04 13:33N 37°32' W 123°04'1212.1
2016-Feb-04 12:33N 37°33' W 123°19'  
Track history (hours):
 
Tides and Currents Weather Stations Pressure Air Temp Water Temp Dewpoint Dewpoint Depression Visibility Wind Speed Wind Dir Waves Ship Positions

Delta Pride

Last reported at 2016-Feb-12 17:34 UTC. Time now 2016-Feb-14 16:49 UTC.
Position N 48°35' W 126°14'.

Length 186 m; draft 10.9 m.

Type: Cargo ship. MMSI: 441339000.

Date/timePositionNaut miles runAvg speedWind from/ knotsBaromVisibWave heightAir tempDewpointWater temp
2016-Feb-12 17:34N 48°35' W 126°14'1110.9
2016-Feb-12 16:33N 48°34' W 125°57'1111.0
2016-Feb-12 15:33N 48°33' W 125°41'1010.5
2016-Feb-12 14:34N 48°32' W 125°25'1110.7
2016-Feb-12 13:32N 48°32' W 125°08'4611.5
2016-Feb-12 09:32N 48°19' W 124°02'1313.3
2016-Feb-12 08:33N 48°16' W 123°43'1211.5
2016-Feb-12 07:33N 48°20' W 123°26'9 9.2
2016-Feb-12 06:33N 48°24' W 123°14'1413.7
2016-Feb-12 05:34N 48°38' W 123°15'1211.7
2016-Feb-12 04:33N 48°46' W 123°02'1110.9
2016-Feb-12 03:33N 48°56' W 123°11'1212.1
2016-Feb-12 02:33N 49°04' W 123°24'1212.1
2016-Feb-12 01:33N 49°16' W 123°20'9 8.9
2016-Feb-12 00:33N 49°18' W 123°07'2 2.2
2016-Feb-11 23:33N 49°18' W 123°03'0 0.0
2016-Feb-11 22:33N 49°18' W 123°03'0 0.0
2016-Feb-11 21:33N 49°18' W 123°03'0 0.0
2016-Feb-11 20:33N 49°18' W 123°03'0 0.0
2016-Feb-11 19:33N 49°18' W 123°03'0 0.0
2016-Feb-11 18:34N 49°18' W 123°03'0 0.0
2016-Feb-11 17:33N 49°18' W 123°03'0 0.0
2016-Feb-11 16:33N 49°18' W 123°03'0 0.0
2016-Feb-11 15:33N 49°18' W 123°03'0 0.0
2016-Feb-11 14:33N 49°18' W 123°03'0 0.0
2016-Feb-11 13:33N 49°18' W 123°03'0 0.0
2016-Feb-11 12:33N 49°18' W 123°03'0 0.0
2016-Feb-11 11:33N 49°18' W 123°03'0 0.0
2016-Feb-11 10:33N 49°18' W 123°03'0 0.0
2016-Feb-11 09:33N 49°18' W 123°03'0 0.0
2016-Feb-11 08:33N 49°18' W 123°03'0 0.0
2016-Feb-11 07:33N 49°18' W 123°03'0 0.0
2016-Feb-11 06:33N 49°18' W 123°03'0 0.0
2016-Feb-11 05:33N 49°18' W 123°03'0 0.0
2016-Feb-11 04:33N 49°18' W 123°03'0 0.0
2016-Feb-11 03:34N 49°18' W 123°03'0 0.0
2016-Feb-11 02:33N 49°18' W 123°03'0 0.0
2016-Feb-11 01:33N 49°18' W 123°03'0 0.0
2016-Feb-11 00:33N 49°18' W 123°03'0 0.0
2016-Feb-10 23:33N 49°18' W 123°03'0 0.0
2016-Feb-10 22:33N 49°18' W 123°03'0 0.0
2016-Feb-10 21:33N 49°18' W 123°03'0 0.0
2016-Feb-10 20:33N 49°18' W 123°03'0 0.0
2016-Feb-10 19:33N 49°18' W 123°03'0 0.0
2016-Feb-10 18:33N 49°18' W 123°03'0 0.0
2016-Feb-10 17:33N 49°18' W 123°03'0 0.0
2016-Feb-10 16:33N 49°18' W 123°03'0 0.0
2016-Feb-10 15:33N 49°18' W 123°03'0 0.0
2016-Feb-10 14:33N 49°18' W 123°03'0 0.0
2016-Feb-10 13:33N 49°18' W 123°03'0 0.0
2016-Feb-10 12:33N 49°18' W 123°03'0 0.0
2016-Feb-10 11:33N 49°18' W 123°03'0 0.0
2016-Feb-10 10:33N 49°18' W 123°03'0 0.0
2016-Feb-10 09:33N 49°18' W 123°03'0 0.0
2016-Feb-10 08:33N 49°18' W 123°03'0 0.0
2016-Feb-10 07:33N 49°18' W 123°03'0 0.0
2016-Feb-10 06:33N 49°18' W 123°03'0 0.0
2016-Feb-10 05:33N 49°18' W 123°03'0 0.0
2016-Feb-10 04:33N 49°18' W 123°03'0 0.0
2016-Feb-10 03:33N 49°18' W 123°03'0 0.4
2016-Feb-10 02:33N 49°18' W 123°04'8 8.4
2016-Feb-10 01:33N 49°18' W 123°17'1313.5
2016-Feb-10 00:34N 49°04' W 123°20'1514.8
2016-Feb-09 23:34N 48°54' W 123°05'1111.0
2016-Feb-09 22:34N 48°43' W 123°10'1212.1
2016-Feb-09 21:34N 48°31' W 123°11'1211.6
2016-Feb-09 20:34N 48°22' W 123°22'9 8.8
2016-Feb-09 19:32N 48°14' W 123°29'1212.0
2016-Feb-09 18:33N 48°14' W 123°47'4912.2
2016-Feb-09 14:30N 48°28' W 124°58'1313.4
2016-Feb-09 13:33N 48°18' W 125°09'2013.9
2016-Feb-09 12:07N 48°01' W 125°25'813.8
2016-Feb-09 11:33N 47°55' W 125°32'1913.9
2016-Feb-09 10:10N 47°40' W 125°51'2113.1
2016-Feb-09 08:33N 47°21' W 126°05'1914.8
2016-Feb-09 07:15N 47°02' W 126°05'1014.9
2016-Feb-09 06:33N 46°52' W 126°05'1514.5
2016-Feb-09 05:33N 46°37' W 126°05'1414.1
2016-Feb-09 04:33N 46°23' W 126°05'1414.1
2016-Feb-09 03:33N 46°09' W 126°05'1010.4
2016-Feb-09 02:33N 45°59' W 126°05'3 3.1
2016-Feb-09 01:33N 45°55' W 126°05'1413.6
2016-Feb-09 00:33N 45°42' W 126°05'3013.5
2016-Feb-08 22:18N 45°12' W 126°05'1013.2
2016-Feb-08 21:32N 45°01' W 126°05'1413.4
2016-Feb-08 20:29N 44°47' W 126°05'39112.6
2016-Feb-07 13:33N 38°27' W 124°07'1312.9
2016-Feb-07 12:33N 38°21' W 123°52'1312.7
2016-Feb-07 11:33N 38°15' W 123°37'1312.6
2016-Feb-07 10:33N 38°10' W 123°23'1212.4
2016-Feb-07 09:33N 38°01' W 123°12'1312.9
2016-Feb-07 08:33N 37°54' W 122°58'1312.9
2016-Feb-07 07:33N 37°47' W 122°44'1010.3
2016-Feb-07 06:33N 37°48' W 122°31'9 8.9
2016-Feb-07 05:33N 37°56' W 122°27'3010.0
2016-Feb-07 02:33N 38°02' W 121°49'2 0.1
2016-Feb-06 10:33N 38°02' W 121°52'0 0.0
2016-Feb-05 17:24N 38°02' W 121°52'0 0.0
2016-Feb-05 16:30N 38°02' W 121°52'0 0.0
2016-Feb-04 21:28N 38°02' W 121°52'5 5.4
2016-Feb-04 20:33N 38°03' W 121°58'11 8.8
2016-Feb-04 19:19N 38°03' W 122°12'911.4
2016-Feb-04 18:33N 38°02' W 122°22'1010.2
2016-Feb-04 17:34N 37°52' W 122°25'9 9.3
2016-Feb-04 16:33N 37°47' W 122°35'8 8.4
2016-Feb-04 15:34N 37°42' W 122°44'9 8.7
2016-Feb-04 14:33N 37°37' W 122°53'10 9.8
2016-Feb-04 13:33N 37°32' W 123°04'1212.1
2016-Feb-04 12:33N 37°33' W 123°19'  

Dump ship's entire track history